Time;durP1;ratioP1;P1;durP2;ratioP2;P2;SDS_P1;SDS_P2;PMS_P1;PMS_P2;Temp;Humidity;BMP_temperature;BMP_pressure;BME280_temperature;BME280_humidity;BME280_pressure;Samples;Min_cycle;Max_cycle;Signal;HPM_P1;HPM_P2
2023/01/30 00:00:27;;;;;;;2.50;2.00;;;;;;;-0.25;100.00;99570.30;103691;1282;69732;-58
2023/01/30 00:02:55;;;;;;;3.10;2.50;;;;;;;-0.19;100.00;99569.09;103777;1270;72460;-58
2023/01/30 00:05:24;;;;;;;3.10;2.70;;;;;;;-0.10;100.00;99566.85;103919;1267;145658;-59
2023/01/30 00:07:52;;;;;;;3.30;2.60;;;;;;;-0.03;100.00;99563.23;103944;1279;60031;-59
2023/01/30 00:10:20;;;;;;;3.10;2.50;;;;;;;-0.01;100.00;99562.02;103922;1267;73349;-58
2023/01/30 00:12:52;;;;;;;2.80;2.50;;;;;;;-0.04;100.00;99560.98;104030;1262;68845;-58
2023/01/30 00:15:22;;;;;;;2.10;1.90;;;;;;;-0.04;100.00;99556.68;104041;1267;72731;-58
2023/01/30 00:17:52;;;;;;;2.60;2.10;;;;;;;-0.05;100.00;99555.83;103894;1268;59832;-58
2023/01/30 00:20:21;;;;;;;2.30;2.10;;;;;;;-0.07;100.00;99557.38;103955;1268;60627;-59
2023/01/30 00:22:49;;;;;;;2.00;1.80;;;;;;;-0.07;100.00;99553.60;104096;1262;72073;-58
2023/01/30 00:25:28;;;;;;;1.80;1.60;;;;;;;-0.11;100.00;99554.45;103916;1284;69723;-62
2023/01/30 00:27:59;;;;;;;3.10;2.10;;;;;;;-0.13;100.00;99549.46;104014;1267;72207;-57
2023/01/30 00:30:29;;;;;;;2.70;2.10;;;;;;;-0.12;100.00;99544.64;103969;1266;62071;-59
2023/01/30 00:32:58;;;;;;;2.80;2.10;;;;;;;-0.09;100.00;99543.08;104013;1278;62504;-58
2023/01/30 00:35:29;;;;;;;2.50;2.00;;;;;;;-0.09;100.00;99538.60;103889;1284;72055;-58
2023/01/30 00:37:57;;;;;;;2.00;1.80;;;;;;;-0.10;100.00;99539.63;103983;1264;68874;-58
2023/01/30 00:40:27;;;;;;;2.80;2.20;;;;;;;-0.09;100.00;99539.29;104031;1262;72311;-58
2023/01/30 00:48:31;;;;;;;2.10;1.90;;;;;;;-0.12;100.00;99535.49;104006;1267;72031;-59
2023/01/30 00:50:59;;;;;;;1.80;1.70;;;;;;;-0.17;100.00;99531.37;104063;1267;69098;-58
2023/01/30 00:53:28;;;;;;;2.40;2.00;;;;;;;-0.20;100.00;99525.86;103979;1262;73040;-59
2023/01/30 00:55:57;;;;;;;3.10;2.40;;;;;;;-0.19;100.00;99528.79;104330;1272;60506;-60
2023/01/30 00:58:25;;;;;;;2.60;2.10;;;;;;;-0.12;100.00;99526.02;104438;1257;59802;-59
2023/01/30 01:00:56;;;;;;;2.40;2.20;;;;;;;-0.09;100.00;99519.98;104204;1261;71865;-59
2023/01/30 01:03:25;;;;;;;2.30;1.90;;;;;;;-0.07;100.00;99516.02;104084;1256;69872;-59
2023/01/30 01:05:53;;;;;;;2.10;1.90;;;;;;;-0.02;100.00;99512.91;104200;1260;71803;-59
2023/01/30 01:08:21;;;;;;;2.30;2.00;;;;;;;-0.02;100.00;99502.23;104413;1260;59744;-59
2023/01/30 01:10:51;;;;;;;2.50;2.00;;;;;;;-0.04;100.00;99505.16;104285;1256;60311;-59
2023/01/30 01:13:20;;;;;;;2.30;2.10;;;;;;;-0.09;100.00;99498.45;104168;1261;72326;-62
2023/01/30 01:15:49;;;;;;;2.40;2.10;;;;;;;-0.14;100.00;99494.66;104126;1257;69354;-59
2023/01/30 01:18:17;;;;;;;3.00;2.50;;;;;;;-0.15;100.00;99493.13;104207;1256;71796;-58
2023/01/30 01:20:46;;;;;;;2.90;2.50;;;;;;;-0.20;100.00;99496.40;104370;1260;61129;-59
2023/01/30 01:23:14;;;;;;;2.70;2.40;;;;;;;-0.17;100.00;99489.52;104151;1261;59654;-59
2023/01/30 01:25:45;;;;;;;2.80;2.60;;;;;;;-0.15;100.00;99483.98;104331;1259;72656;-58
2023/01/30 01:28:13;;;;;;;2.50;2.30;;;;;;;-0.17;100.00;99481.59;104374;1256;68748;-58
2023/01/30 01:30:44;;;;;;;3.80;2.60;;;;;;;-0.19;100.00;99484.17;104236;1260;72578;-59
2023/01/30 01:33:12;;;;;;;3.10;2.40;;;;;;;-0.20;100.00;99482.79;104375;1259;59621;-59
2023/01/30 01:35:41;;;;;;;2.40;2.10;;;;;;;-0.19;100.00;99478.48;104422;1258;60394;-59
2023/01/30 01:38:10;;;;;;;3.20;2.70;;;;;;;-0.22;100.00;99473.66;104381;1259;72193;-59
2023/01/30 01:43:33;;;;;;;2.40;2.10;;;;;;;-0.29;100.00;99470.91;104392;1259;72391;-59
2023/01/30 01:46:19;;;;;;;3.40;2.90;;;;;;;-0.30;100.00;99474.35;104175;1256;60302;-59
2023/01/30 01:48:50;;;;;;;2.60;2.30;;;;;;;-0.30;100.00;99472.98;104419;1265;59709;-59
2023/01/30 01:51:33;;;;;;;4.90;2.70;;;;;;;-0.26;100.00;99472.65;104233;1260;73206;-58
2023/01/30 01:54:05;;;;;;;3.20;2.20;;;;;;;-0.29;100.00;99471.94;104312;1259;69761;-60
2023/01/30 01:56:33;;;;;;;3.90;2.70;;;;;;;-0.29;100.00;99470.41;104353;1261;71729;-59
2023/01/30 01:59:05;;;;;;;6.20;2.30;;;;;;;-0.31;100.00;99468.16;104033;1262;59841;-58
2023/01/30 02:01:33;;;;;;;3.90;2.40;;;;;;;-0.33;100.00;99468.00;104309;1259;60441;-62
2023/01/30 02:04:03;;;;;;;2.30;2.10;;;;;;;-0.36;100.00;99469.89;104347;1261;72193;-59
2023/01/30 02:06:31;;;;;;;2.40;2.00;;;;;;;-0.33;100.00;99470.77;104190;1278;68552;-58
2023/01/30 02:09:03;;;;;;;5.70;2.70;;;;;;;-0.28;100.00;99468.34;104369;1256;72658;-58
2023/01/30 02:11:48;;;;;;;3.60;2.40;;;;;;;-0.33;100.00;99465.41;104379;1259;59643;-58
2023/01/30 02:14:17;;;;;;;2.20;2.00;;;;;;;-0.29;100.00;99460.42;104294;1262;60451;-59
2023/01/30 02:16:46;;;;;;;3.60;1.90;;;;;;;-0.29;100.00;99458.86;104045;1262;72531;-59
2023/01/30 02:19:33;;;;;;;2.60;2.00;;;;;;;-0.28;100.00;99460.24;104228;1257;69206;-59
2023/01/30 02:22:26;;;;;;;3.00;2.10;;;;;;;-0.33;100.00;99459.02;104238;1268;72568;-60
2023/01/30 02:25:03;;;;;;;2.10;1.90;;;;;;;-0.35;100.00;99460.59;104300;1275;59677;-58
2023/01/30 02:27:36;;;;;;;2.60;2.30;;;;;;;-0.39;100.00;99454.05;104275;1272;59613;-61
2023/01/30 02:30:30;;;;;;;2.10;1.90;;;;;;;-0.26;100.00;99450.93;104198;1256;73281;-59
2023/01/30 02:33:07;;;;;;;3.40;2.00;;;;;;;-0.10;100.00;99439.00;104264;1260;68948;-58
2023/01/30 02:35:48;;;;;;;2.50;1.90;;;;;;;-0.06;100.00;99428.31;104290;1256;72832;-58
2023/01/30 02:38:28;;;;;;;2.90;2.20;;;;;;;-0.04;100.00;99426.06;104368;1256;59723;-58
2023/01/30 02:41:33;;;;;;;3.00;1.90;;;;;;;0.01;100.00;99428.12;104213;1259;59728;-58
2023/01/30 02:44:03;;;;;;;2.10;1.90;;;;;;;0.05;100.00;99428.78;104342;1256;72712;-59
2023/01/30 02:46:41;;;;;;;1.90;1.70;;;;;;;0.07;100.00;99423.96;104172;1256;69340;-60
2023/01/30 02:49:20;;;;;;;2.20;2.00;;;;;;;0.07;100.00;99416.89;104215;1257;71384;-58
2023/01/30 02:51:49;;;;;;;2.10;1.90;;;;;;;0.06;100.00;99407.75;104236;1259;59631;-59
2023/01/30 02:54:17;;;;;;;1.80;1.60;;;;;;;0.08;100.00;99408.44;104051;1270;60527;-59
2023/01/30 02:56:55;;;;;;;4.90;2.00;;;;;;;0.10;100.00;99402.74;104176;1268;72209;-59
2023/01/30 02:59:39;;;;;;;3.70;2.30;;;;;;;0.13;100.00;99396.70;104281;1277;69672;-59
2023/01/30 03:02:13;;;;;;;2.90;2.40;;;;;;;0.21;100.00;99398.22;104236;1260;72974;-57
2023/01/30 03:04:53;;;;;;;3.50;2.40;;;;;;;0.23;100.00;99399.07;104236;1261;59749;-58
2023/01/30 03:07:37;;;;;;;2.40;2.20;;;;;;;0.25;100.00;99395.44;104258;1262;60707;-59
2023/01/30 03:10:26;;;;;;;2.30;1.90;;;;;;;0.26;100.00;99393.88;104185;1262;73272;-58
2023/01/30 03:13:12;;;;;;;1.90;1.60;;;;;;;0.28;100.00;99388.70;104297;1260;69873;-60
2023/01/30 03:15:44;;;;;;;2.00;1.80;;;;;;;0.27;100.00;99384.04;104268;1259;71850;-58
2023/01/30 03:18:13;;;;;;;1.70;1.50;;;;;;;0.24;100.00;99381.48;104216;1257;59754;-60
2023/01/30 03:20:42;;;;;;;1.90;1.80;;;;;;;0.25;100.00;99375.61;104177;1260;60173;-58
2023/01/30 03:23:10;;;;;;;2.20;1.40;;;;;;;0.24;100.00;99380.62;104136;1261;71945;-59
2023/01/30 03:25:39;;;;;;;2.00;1.80;;;;;;;0.20;100.00;99378.91;104496;1266;69274;-58
2023/01/30 03:28:08;;;;;;;4.40;2.00;;;;;;;0.24;100.00;99376.64;104242;1272;72998;-58
2023/01/30 03:30:38;;;;;;;2.60;2.10;;;;;;;0.31;100.00;99375.41;104211;1261;60927;-58
2023/01/30 03:33:09;;;;;;;2.30;2.00;;;;;;;0.32;100.00;99375.05;104214;1266;59736;-59
2023/01/30 03:35:39;;;;;;;3.40;2.10;;;;;;;0.34;100.00;99373.49;104290;1267;72082;-59
2023/01/30 03:38:08;;;;;;;2.50;2.00;;;;;;;0.33;100.00;99366.78;104344;1257;69767;-59
2023/01/30 03:40:36;;;;;;;1.70;1.50;;;;;;;0.30;100.00;99371.45;104313;1257;72183;-59
2023/01/30 03:43:05;;;;;;;4.30;2.00;;;;;;;0.28;100.00;99366.27;104173;1256;59749;-59
2023/01/30 03:45:34;;;;;;;1.70;1.60;;;;;;;0.25;100.00;99363.53;104484;1256;59753;-58
2023/01/30 03:48:03;;;;;;;2.20;1.90;;;;;;;0.25;100.00;99363.55;104267;1259;72271;-60
2023/01/30 04:33:25;;;;;;;3.90;2.80;;;;;;;0.18;100.00;99342.89;102662;1291;71879;-60
2023/01/30 04:39:41;;;;;;;4.30;3.40;;;;;;;0.05;100.00;99343.98;103250;1285;60480;-60
2023/01/30 04:42:09;;;;;;;4.00;3.40;;;;;;;0.01;100.00;99341.61;101877;1285;74108;-59
2023/01/30 04:44:45;;;;;;;3.80;3.30;;;;;;;-0.06;100.00;99341.11;101835;1302;70071;-60
2023/01/30 04:47:19;;;;;;;3.30;3.00;;;;;;;0.02;100.00;99340.23;101830;1289;72578;-60
2023/01/30 04:49:47;;;;;;;5.50;3.90;;;;;;;0.05;100.00;99337.44;101994;1288;60599;-60
2023/01/30 04:52:16;;;;;;;4.40;3.70;;;;;;;0.06;100.00;99338.64;101875;1291;60610;-60
2023/01/30 04:54:46;;;;;;;4.80;4.40;;;;;;;0.14;100.00;99334.81;101908;1292;73717;-60
2023/01/30 04:57:15;;;;;;;4.60;4.10;;;;;;;0.19;100.00;99330.13;101988;1290;70278;-60
2023/01/30 04:59:44;;;;;;;4.40;4.00;;;;;;;0.19;100.00;99332.02;101993;1286;71447;-59
2023/01/30 05:02:14;;;;;;;4.70;3.90;;;;;;;0.16;100.00;99327.73;102071;1286;60543;-60
2023/01/30 05:04:43;;;;;;;4.40;4.00;;;;;;;0.12;100.00;99330.70;102122;1292;60591;-60
2023/01/30 05:07:11;;;;;;;4.50;4.00;;;;;;;0.11;100.00;99330.00;102048;1285;73178;-60
2023/01/30 05:09:40;;;;;;;4.10;3.70;;;;;;;0.09;100.00;99325.19;102049;1299;69084;-60
2023/01/30 05:12:08;;;;;;;4.40;4.00;;;;;;;0.08;100.00;99323.48;102099;1282;72667;-59
2023/01/30 05:14:40;;;;;;;5.20;4.70;;;;;;;0.10;100.00;99315.02;102106;1285;61497;-60
2023/01/30 05:17:10;;;;;;;6.60;4.90;;;;;;;0.15;100.00;99311.71;102025;1282;60558;-60
2023/01/30 05:19:39;;;;;;;5.40;4.40;;;;;;;0.19;100.00;99302.91;102088;1288;74126;-60
2023/01/30 05:22:07;;;;;;;7.20;4.60;;;;;;;0.22;100.00;99296.66;102141;1289;69625;-60
2023/01/30 05:24:36;;;;;;;6.40;4.20;;;;;;;0.24;100.00;99296.15;102035;1295;73035;-61
2023/01/30 05:27:04;;;;;;;5.10;4.20;;;;;;;0.24;100.00;99289.60;102037;1288;60509;-60
2023/01/30 05:29:35;;;;;;;4.20;3.80;;;;;;;0.25;100.00;99290.28;102033;1301;60617;-59
2023/01/30 05:32:05;;;;;;;4.50;4.10;;;;;;;0.23;100.00;99294.42;102092;1282;73051;-60
2023/01/30 05:34:33;;;;;;;7.20;5.40;;;;;;;0.23;100.00;99289.94;102130;1288;69658;-60
2023/01/30 05:37:01;;;;;;;5.90;4.70;;;;;;;0.29;100.00;99287.14;101952;1282;72318;-60
2023/01/30 05:39:30;;;;;;;6.70;5.20;;;;;;;0.37;100.00;99286.73;102139;1299;60598;-60
2023/01/30 05:41:59;;;;;;;7.20;5.00;;;;;;;0.30;100.00;99282.48;102046;1283;60572;-60
2023/01/30 05:44:28;;;;;;;5.40;4.50;;;;;;;0.29;100.00;99283.86;102271;1283;73453;-60
2023/01/30 05:46:57;;;;;;;4.40;3.90;;;;;;;0.29;100.00;99275.94;102074;1285;69389;-62
2023/01/30 05:49:25;;;;;;;6.20;4.70;;;;;;;0.31;100.00;99273.52;102235;1298;72232;-60
2023/01/30 05:51:53;;;;;;;5.60;4.20;;;;;;;0.28;100.00;99268.88;102151;1285;60558;-60
2023/01/30 05:54:22;;;;;;;4.80;4.20;;;;;;;0.28;100.00;99266.45;102184;1286;60642;-60
2023/01/30 05:56:50;;;;;;;5.60;4.20;;;;;;;0.31;100.00;99266.61;102108;1285;73574;-60
2023/01/30 05:59:19;;;;;;;5.80;4.50;;;;;;;0.36;100.00;99267.77;102060;1287;70019;-60
2023/01/30 06:01:47;;;;;;;6.00;4.30;;;;;;;0.48;100.00;99267.52;102103;1289;71861;-60
2023/01/30 06:04:16;;;;;;;4.90;4.10;;;;;;;0.52;100.00;99266.29;102005;1285;60649;-61
2023/01/30 06:06:45;;;;;;;5.80;4.20;;;;;;;0.45;100.00;99266.67;102061;1282;60613;-59
2023/01/30 06:09:14;;;;;;;5.70;3.90;;;;;;;0.47;100.00;99261.66;102143;1285;73144;-61
2023/01/30 06:11:43;;;;;;;4.70;4.00;;;;;;;0.50;100.00;99259.23;102396;1282;69380;-58
2023/01/30 06:14:12;;;;;;;3.70;3.40;;;;;;;0.53;100.00;99263.16;102204;1285;73222;-58
2023/01/30 06:16:40;;;;;;;4.30;3.90;;;;;;;0.54;100.00;99262.63;102183;1283;60942;-58
2023/01/30 06:19:09;;;;;;;6.00;5.00;;;;;;;0.50;100.00;99260.95;102070;1283;60625;-57
2023/01/30 06:21:38;;;;;;;4.20;3.80;;;;;;;0.60;100.00;99256.20;102291;1285;74121;-58
2023/01/30 06:24:06;;;;;;;5.50;4.40;;;;;;;0.53;100.00;99256.61;102307;1298;69098;-58
2023/01/30 06:26:35;;;;;;;4.30;3.90;;;;;;;0.48;100.00;99254.23;102272;1282;72167;-58
2023/01/30 06:29:03;;;;;;;4.30;3.70;;;;;;;0.52;100.00;99249.72;102165;1285;60578;-60
2023/01/30 06:31:32;;;;;;;3.70;3.40;;;;;;;0.51;100.00;99251.27;101982;1289;60565;-59
2023/01/30 06:34:02;;;;;;;6.70;3.80;;;;;;;0.43;100.00;99252.21;101960;1295;75222;-60
2023/01/30 06:36:31;;;;;;;5.00;4.50;;;;;;;0.49;100.00;99248.02;101827;1288;70354;-59
2023/01/30 06:39:00;;;;;;;5.60;4.50;;;;;;;0.57;100.00;99244.32;102115;1282;72434;-59
2023/01/30 06:41:31;;;;;;;4.40;4.00;;;;;;;0.48;100.00;99239.92;102208;1286;60565;-57
2023/01/30 06:44:00;;;;;;;4.80;4.00;;;;;;;0.55;100.00;99238.47;102019;1285;60597;-61
2023/01/30 06:46:29;;;;;;;5.10;4.20;;;;;;;0.48;100.00;99238.20;102213;1289;73617;-61
2023/01/30 06:48:58;;;;;;;4.60;3.80;;;;;;;0.53;100.00;99234.19;102458;1288;70244;-62
2023/01/30 06:51:27;;;;;;;5.00;3.80;;;;;;;0.51;100.00;99229.55;102571;1282;71750;-61
2023/01/30 06:53:59;;;;;;;5.60;4.80;;;;;;;0.48;100.00;99229.92;102563;1283;61984;-60
2023/01/30 06:56:27;;;;;;;5.70;4.60;;;;;;;0.56;100.00;99228.30;102175;1291;60584;-64
2023/01/30 06:58:56;;;;;;;5.60;4.60;;;;;;;0.65;100.00;99228.05;102318;1285;73412;-58
2023/01/30 07:01:25;;;;;;;6.00;4.60;;;;;;;0.62;100.00;99227.04;102102;1296;70851;-57
2023/01/30 07:03:56;;;;;;;7.10;5.20;;;;;;;0.58;100.00;99229.67;102083;1287;74260;-59
2023/01/30 07:06:27;;;;;;;4.70;4.10;;;;;;;0.66;100.00;99229.08;102234;1294;60583;-61
2023/01/30 07:09:01;;;;;;;4.30;3.90;;;;;;;0.59;100.00;99231.55;102437;1282;60367;-61
2023/01/30 07:11:31;;;;;;;4.50;3.60;;;;;;;0.62;100.00;99226.16;102421;1281;74433;-61
2023/01/30 07:14:00;;;;;;;4.90;4.40;;;;;;;0.58;100.00;99226.73;102084;1296;70803;-60
2023/01/30 07:16:29;;;;;;;8.80;4.90;;;;;;;0.57;100.00;99219.31;102493;1282;71782;-59
2023/01/30 07:18:58;;;;;;;5.10;4.10;;;;;;;0.56;100.00;99216.56;102396;1283;60600;-61
2023/01/30 07:21:27;;;;;;;4.80;4.40;;;;;;;0.64;100.00;99218.75;102407;1288;60855;-59
2023/01/30 07:23:56;;;;;;;5.30;4.40;;;;;;;0.67;100.00;99210.09;102161;1288;74067;-59
2023/01/30 07:26:28;;;;;;;5.20;4.30;;;;;;;0.66;100.00;99209.41;102133;1290;68985;-62
2023/01/30 07:28:57;;;;;;;6.20;4.90;;;;;;;0.57;100.00;99208.27;101990;1290;73835;-62
2023/01/30 07:31:26;;;;;;;5.00;4.20;;;;;;;0.65;100.00;99207.87;101675;1304;62491;-61
2023/01/30 07:33:55;;;;;;;6.00;4.80;;;;;;;0.70;100.00;99202.80;101917;1289;60659;-61
2023/01/30 07:36:24;;;;;;;5.80;5.10;;;;;;;0.78;100.00;99200.84;102278;1288;74944;-59
2023/01/30 07:38:53;;;;;;;5.20;4.40;;;;;;;0.74;100.00;99201.91;102137;1302;68654;-61
2023/01/30 07:41:24;;;;;;;6.60;4.20;;;;;;;0.69;100.00;99192.46;102176;1298;73739;-62
2023/01/30 07:43:55;;;;;;;5.20;4.10;;;;;;;0.65;100.00;99191.30;102487;1289;60597;-59
2023/01/30 07:46:23;;;;;;;4.10;3.80;;;;;;;0.66;100.00;99188.02;102397;1283;60582;-61
2023/01/30 07:48:52;;;;;;;7.30;3.90;;;;;;;0.65;100.00;99187.69;102065;1289;74649;-61
2023/01/30 07:51:21;;;;;;;4.90;4.00;;;;;;;0.70;100.00;99186.77;102474;1289;70164;-59
2023/01/30 07:53:50;;;;;;;4.10;3.70;;;;;;;0.68;100.00;99180.41;102030;1289;73592;-60
2023/01/30 07:56:20;;;;;;;4.30;3.90;;;;;;;0.66;100.00;99177.49;102265;1288;60597;-62
2023/01/30 07:58:50;;;;;;;4.30;3.40;;;;;;;0.70;100.00;99174.34;102079;1289;61443;-61
2023/01/30 08:01:18;;;;;;;4.50;4.10;;;;;;;0.68;100.00;99167.13;101924;1288;74876;-59
2023/01/30 08:03:48;;;;;;;5.50;3.90;;;;;;;0.74;100.00;99166.02;102707;1281;70490;-60
2023/01/30 08:06:17;;;;;;;4.50;3.80;;;;;;;0.82;100.00;99163.52;102141;1297;74060;-59
2023/01/30 08:08:45;;;;;;;5.60;4.20;;;;;;;0.81;100.00;99158.89;102080;1296;60701;-61
2023/01/30 08:11:14;;;;;;;5.00;4.10;;;;;;;0.87;100.00;99155.86;101985;1299;60946;-63
2023/01/30 08:13:46;;;;;;;4.70;4.10;;;;;;;0.89;100.00;99147.56;102003;1299;73810;-61
2023/01/30 08:16:15;;;;;;;5.00;4.50;;;;;;;0.91;100.00;99144.44;102069;1284;71099;-60
2023/01/30 08:18:45;;;;;;;5.40;4.30;;;;;;;0.88;100.00;99142.23;102485;1285;73072;-59
2023/01/30 08:21:14;;;;;;;4.20;3.80;;;;;;;0.89;100.00;99133.42;102184;1299;61095;-60
2023/01/30 08:23:43;;;;;;;5.20;4.20;;;;;;;0.87;100.00;99129.83;102294;1291;60492;-63
2023/01/30 08:26:11;;;;;;;5.60;3.90;;;;;;;0.95;100.00;99123.16;101977;1300;76166;-59
2023/01/30 08:28:41;;;;;;;4.50;4.10;;;;;;;1.00;100.00;99119.48;102125;1285;70689;-58
2023/01/30 08:31:13;;;;;;;5.70;4.20;;;;;;;0.98;100.00;99121.58;102218;1282;73091;-60
2023/01/30 08:33:43;;;;;;;5.50;3.90;;;;;;;0.96;100.00;99116.08;102211;1282;60520;-59
2023/01/30 08:36:13;;;;;;;6.00;4.10;;;;;;;0.92;100.00;99114.58;102134;1285;60537;-61
2023/01/30 08:38:41;;;;;;;6.30;4.80;;;;;;;0.88;100.00;99112.04;102089;1282;73292;-60
2023/01/30 08:41:15;;;;;;;5.30;4.40;;;;;;;0.94;100.00;99105.75;102343;1283;69206;-61
2023/01/30 08:43:45;;;;;;;4.40;4.00;;;;;;;1.01;100.00;99101.34;102202;1283;73737;-60
2023/01/30 08:46:16;;;;;;;4.00;3.60;;;;;;;1.08;100.00;99102.64;102536;1286;60603;-60
2023/01/30 08:48:45;;;;;;;4.90;4.10;;;;;;;1.11;100.00;99092.23;102159;1283;61108;-61
2023/01/30 08:51:18;;;;;;;4.40;4.00;;;;;;;1.15;100.00;99093.92;102397;1289;74984;-61
2023/01/30 08:53:47;;;;;;;4.30;3.90;;;;;;;1.26;100.00;99088.08;102642;1282;71043;-60
2023/01/30 08:56:17;;;;;;;4.20;3.60;;;;;;;1.34;100.00;99084.67;102511;1282;72860;-60
2023/01/30 08:58:47;;;;;;;6.10;4.30;;;;;;;1.35;100.00;99082.75;102133;1292;60638;-61
2023/01/30 09:01:16;;;;;;;4.10;3.50;;;;;;;1.35;100.00;99075.15;101903;1297;61369;-60
2023/01/30 09:03:46;;;;;;;3.70;3.30;;;;;;;1.35;100.00;99073.44;102237;1283;73860;-60
2023/01/30 09:06:16;;;;;;;3.40;3.10;;;;;;;1.24;100.00;99074.46;102214;1285;70398;-62
2023/01/30 09:08:44;;;;;;;3.80;3.40;;;;;;;1.19;100.00;99070.73;102193;1289;71796;-60
2023/01/30 09:11:15;;;;;;;5.20;3.80;;;;;;;1.22;100.00;99071.04;102268;1282;62440;-65
2023/01/30 09:13:44;;;;;;;5.10;3.70;;;;;;;1.14;100.00;99072.34;102009;1288;60605;-59
2023/01/30 09:16:15;;;;;;;4.60;4.10;;;;;;;1.05;100.00;99072.13;102330;1285;74983;-61
2023/01/30 09:18:45;;;;;;;4.80;4.30;;;;;;;1.01;100.00;99069.77;102226;1286;70920;-59
2023/01/30 09:21:15;;;;;;;5.10;3.60;;;;;;;0.95;100.00;99054.99;102533;1285;72449;-60
2023/01/30 09:23:43;;;;;;;5.00;4.10;;;;;;;0.76;100.00;99059.38;102417;1282;60501;-60
2023/01/30 09:26:12;;;;;;;5.30;4.40;;;;;;;0.69;100.00;99054.29;102611;1282;59837;-60
2023/01/30 09:28:41;;;;;;;5.00;4.10;;;;;;;0.64;100.00;99052.63;102464;1285;75196;-61
2023/01/30 09:31:10;;;;;;;4.70;4.30;;;;;;;0.70;100.00;99050.84;102794;1282;68654;-59
2023/01/30 09:33:39;;;;;;;5.00;4.30;;;;;;;0.67;100.00;99044.66;102576;1287;71743;-59
2023/01/30 09:36:08;;;;;;;5.40;4.80;;;;;;;0.55;100.00;99043.77;102126;1289;61524;-59
2023/01/30 09:38:38;;;;;;;4.70;4.30;;;;;;;0.59;100.00;99040.77;102625;1282;60603;-60
2023/01/30 09:41:34;;;;;;;5.00;4.30;;;;;;;0.74;100.00;99034.91;102344;1289;73537;-60
2023/01/30 09:44:14;;;;;;;;;;;;;;;0.74;100.00;99031.45;102355;1285;69816;-60
2023/01/30 09:46:46;;;;;;;5.80;4.60;;;;;;;0.61;100.00;99024.55;102398;1282;72648;-59
2023/01/30 09:49:23;;;;;;;4.40;4.00;;;;;;;0.54;100.00;99019.12;102360;1285;60838;-59
2023/01/30 09:52:12;;;;;;;4.80;4.20;;;;;;;0.62;100.00;99009.36;102502;1282;60465;-60
2023/01/30 09:54:43;;;;;;;6.70;4.90;;;;;;;0.53;100.00;99003.09;101879;1296;74932;-60
2023/01/30 09:57:20;;;;;;;8.80;5.40;;;;;;;0.57;100.00;99001.47;102126;1289;70974;-65
2023/01/30 10:00:22;;;;;;;6.90;5.40;;;;;;;0.52;100.00;98997.58;101921;1288;72838;-60
2023/01/30 10:02:56;;;;;;;4.90;4.10;;;;;;;0.59;100.00;98997.33;102016;1281;60710;-60
2023/01/30 10:05:45;;;;;;;8.50;5.20;;;;;;;0.56;100.00;98988.05;102186;1282;60553;-60
2023/01/30 10:08:20;;;;;;;7.20;5.30;;;;;;;0.59;100.00;98978.86;102019;1286;75681;-58
2023/01/30 10:10:55;;;;;;;9.60;5.50;;;;;;;0.76;100.00;98973.11;102009;1282;70451;-61
2023/01/30 10:14:07;;;;;;;6.00;4.70;;;;;;;0.81;100.00;98963.04;102083;1288;74186;-62
2023/01/30 10:16:43;;;;;;;5.90;4.30;;;;;;;0.92;100.00;98957.89;102399;1286;60600;-58
2023/01/30 10:19:27;;;;;;;3.80;3.40;;;;;;;0.94;100.00;98950.42;102602;1285;60418;-60
2023/01/30 10:22:38;;;;;;;5.30;4.40;;;;;;;0.99;100.00;98941.04;102762;1285;73257;-61
2023/01/30 10:25:45;;;;;;;5.80;4.50;;;;;;;1.04;100.00;98937.33;102341;1281;68903;-61
2023/01/30 10:28:38;;;;;;;4.80;3.70;;;;;;;1.18;100.00;98928.31;102613;1282;74435;-65
2023/01/30 10:31:10;;;;;;;4.70;3.90;;;;;;;1.20;100.00;98925.35;102040;1283;60527;-62
2023/01/30 10:33:44;;;;;;;3.60;3.30;;;;;;;1.25;100.00;98919.91;102162;1285;60775;-61
2023/01/30 10:36:15;;;;;;;4.90;3.50;;;;;;;1.21;100.00;98916.36;102252;1287;74043;-60
2023/01/30 10:38:49;;;;;;;4.50;4.10;;;;;;;1.23;100.00;98910.63;101918;1285;70395;-62
2023/01/30 10:41:23;;;;;;;5.50;4.40;;;;;;;1.25;100.00;98901.09;102023;1288;72520;-59
2023/01/30 10:44:00;;;;;;;4.60;4.20;;;;;;;1.35;100.00;98891.27;102196;1282;60942;-60
2023/01/30 10:46:48;;;;;;;5.60;4.50;;;;;;;1.38;100.00;98887.24;102010;1304;60585;-59
2023/01/30 10:49:19;;;;;;;;;;;;;;;1.34;100.00;98881.44;102562;1285;75260;-60
2023/01/30 10:52:16;;;;;;;4.30;3.90;;;;;;;1.30;100.00;98882.70;102331;1284;70097;-59
2023/01/30 10:55:03;;;;;;;4.60;4.10;;;;;;;1.33;100.00;98870.05;102656;1281;71896;-65
2023/01/30 10:57:53;;;;;;;5.30;4.30;;;;;;;1.39;100.00;98861.14;102655;1281;60829;-62
2023/01/30 11:00:22;;;;;;;4.50;3.90;;;;;;;1.45;100.00;98853.26;102122;1286;60604;-61
2023/01/30 11:03:24;;;;;;;5.10;4.00;;;;;;;1.44;100.00;98851.89;102269;1281;73537;-61
2023/01/30 11:05:59;;;;;;;4.50;4.00;;;;;;;1.42;100.00;98847.27;101999;1286;69668;-61
2023/01/30 11:08:29;;;;;;;4.80;4.00;;;;;;;1.36;100.00;98838.04;102260;1285;72455;-60
2023/01/30 11:11:55;;;;;;;5.10;3.70;;;;;;;1.38;100.00;98831.80;103952;1283;60527;-65
2023/01/30 11:14:25;;;;;;;5.80;4.00;;;;;;;1.47;100.00;98828.19;102627;1281;60524;-67
2023/01/30 11:16:55;;;;;;;5.80;4.40;;;;;;;1.55;100.00;98824.39;102083;1285;72720;-69
2023/01/30 11:19:24;;;;;;;;;;;;;;;1.51;100.00;98821.88;101940;1298;69385;-71
2023/01/30 11:21:54;;;;;;;5.10;4.60;;;;;;;1.47;100.00;98817.46;102210;1285;71752;-70
2023/01/30 11:24:30;;;;;;;4.90;4.20;;;;;;;1.51;100.00;98814.80;102299;1283;60620;-68
2023/01/30 11:27:10;;;;;;;5.20;3.90;;;;;;;1.52;100.00;98816.52;101869;1282;60517;-69
2023/01/30 11:29:39;;;;;;;5.30;4.50;;;;;;;1.47;100.00;98806.94;101896;1282;73396;-68
2023/01/30 11:32:18;;;;;;;5.40;4.50;;;;;;;1.56;100.00;98803.30;101835;1289;69060;-69
2023/01/30 11:35:01;;;;;;;5.90;5.30;;;;;;;1.62;100.00;98795.58;102069;1284;73235;-70
2023/01/30 11:37:43;;;;;;;5.60;4.80;;;;;;;1.64;100.00;98787.94;101990;1287;60736;-69
2023/01/30 11:40:19;;;;;;;6.00;4.60;;;;;;;1.60;100.00;98782.66;102158;1282;60533;-67
2023/01/30 11:42:50;;;;;;;4.60;4.10;;;;;;;1.69;100.00;98771.25;102196;1297;73931;-67
2023/01/30 11:45:19;;;;;;;7.10;4.20;;;;;;;1.75;100.00;98762.14;101897;1286;70198;-68
2023/01/30 11:48:02;;;;;;;7.60;5.00;;;;;;;1.63;100.00;98753.92;101857;1299;73545;-69
2023/01/30 11:50:41;;;;;;;6.50;5.10;;;;;;;1.73;100.00;98755.11;102071;1301;61344;-70
2023/01/30 11:53:44;;;;;;;5.80;5.20;;;;;;;1.76;100.00;98755.03;102132;1285;60782;-71
2023/01/30 11:56:16;;;;;;;4.50;4.10;;;;;;;1.84;100.00;98749.33;102235;1285;74945;-68
2023/01/30 11:58:48;;;;;;;5.20;4.30;;;;;;;1.77;100.00;98743.27;101859;1287;69114;-69
2023/01/30 12:01:17;;;;;;;4.90;4.40;;;;;;;1.76;100.00;98744.34;102111;1298;73054;-68
2023/01/30 12:03:50;;;;;;;8.60;5.50;;;;;;;1.71;100.00;98743.73;101934;1282;371503;-69
2023/01/30 12:07:20;;;;;;;5.40;4.80;;;;;;;1.54;100.00;98745.97;101333;1295;601152;-67
2023/01/30 12:09:53;;;;;;;4.70;4.30;;;;;;;1.89;100.00;98736.09;103493;1272;59395;-67
2023/01/30 12:12:36;;;;;;;5.40;4.60;;;;;;;1.82;100.00;98737.81;104025;1264;60827;-71
2023/01/30 12:15:22;;;;;;;4.90;4.40;;;;;;;1.72;100.00;98738.18;104169;1271;71719;-70
2023/01/30 12:18:22;;;;;;;5.70;4.10;;;;;;;1.71;100.00;98731.81;103993;1258;70591;-68
2023/01/30 12:21:01;;;;;;;5.90;5.30;;;;;;;1.86;100.00;98723.02;104082;1264;285639;-71
2023/01/30 12:23:37;;;;;;;14.10;8.10;;;;;;;1.94;100.00;98713.69;104453;1254;59332;-70
2023/01/30 12:26:11;;;;;;;12.60;11.20;;;;;;;1.95;100.00;98707.27;104389;1259;59413;-72
2023/01/30 12:29:03;;;;;;;8.70;7.80;;;;;;;1.90;100.00;98708.23;104080;1255;72415;-68
2023/01/30 12:31:34;;;;;;;58.70;53.60;;;;;;;1.73;100.00;98708.62;104269;1261;68494;-68
2023/01/30 12:34:04;;;;;;;28.40;25.90;;;;;;;1.85;100.00;98701.61;104050;1266;73437;-67
2023/01/30 12:36:46;;;;;;;21.70;18.60;;;;;;;1.82;100.00;98702.89;104329;1261;60289;-69
2023/01/30 12:39:39;;;;;;;18.80;15.50;;;;;;;1.80;100.00;98703.45;104349;1254;60377;-67
2023/01/30 12:42:24;;;;;;;12.50;10.00;;;;;;;1.76;100.00;98700.10;104362;1254;72244;-69
2023/01/30 12:45:22;;;;;;;14.50;13.00;;;;;;;1.84;100.00;98701.82;104339;1264;69407;-67
2023/01/30 12:48:09;;;;;;;19.60;13.60;;;;;;;1.63;100.00;98706.26;104278;1273;73486;-68